Time;durP1;ratioP1;P1;durP2;ratioP2;P2;SDS_P1;SDS_P2;PMS_P1;PMS_P2;Temp;Humidity;BMP_temperature;BMP_pressure;BME280_temperature;BME280_humidity;BME280_pressure;Samples;Min_cycle;Max_cycle;Signal;HPM_P1;HPM_P2
2022/02/21 00:00:08;;;;;;;;;;;;;;;;;;1015909;29;1039;-28
2022/02/21 00:00:43;;;;;;;;;;;;;;;;;;1015765;29;1906;-29
2022/02/21 00:01:14;;;;;;;;;;;;;;;;;;1015499;29;958;-30
2022/02/21 00:01:44;;;;;;;;;;;;;;;;;;1015905;29;1120;-28
2022/02/21 00:02:15;;;;;;;;;;;;;;;;;;1015491;29;916;-29
2022/02/21 00:02:47;;;;;;;;;;;;;;;;;;1015874;29;934;-28
2022/02/21 00:03:20;;;;;;;;;;;;;;;;;;1015665;29;982;-28
2022/02/21 00:03:50;;;;;;;;;;;;;;;;;;1015489;29;1673;-29
2022/02/21 00:04:21;;;;;;;;;;;;;;;;;;1016006;29;899;-29
2022/02/21 00:04:51;;;;;;;;;;;;;;;;;;1015679;29;892;-29
2022/02/21 00:05:22;;;;;;;;;;;;;;;;;;1015651;29;871;-29
2022/02/21 00:05:52;;;;;;;;;;;;;;;;;;1015716;29;920;-29
2022/02/21 00:06:23;;;;;;;;;;;;;;;;;;1015615;29;964;-29
2022/02/21 00:06:53;;;;;;;;;;;;;;;;;;1015821;29;907;-29
2022/02/21 00:07:23;;;;;;;;;;;;;;;;;;1015551;29;941;-29
2022/02/21 00:07:54;;;;;;;;;;;;;;;;;;1015318;29;887;-29
2022/02/21 00:08:24;;;;;;;;;;;;;;;;;;1015446;29;947;-29
2022/02/21 00:08:54;;;;;;;;;;;;;;;;;;1015178;29;938;-29
2022/02/21 00:09:24;;;;;;;;;;;;;;;;;;1011488;29;912;-29
2022/02/21 00:09:55;;;;;;;;;;;;;;;;;;1015252;29;1071;-29
2022/02/21 00:10:25;;;;;;;;;;;;;;;;;;1015339;29;825;-29
2022/02/21 00:10:55;;;;;;;;;;;;;;;;;;1015480;29;1055;-29
2022/02/21 00:11:26;;;;;;;;;;;;;;;;;;1015482;29;892;-29
2022/02/21 00:11:56;;;;;;;;;;;;;;;;;;1015661;29;891;-29
2022/02/21 00:12:26;;;;;;;;;;;;;;;;;;1015746;29;1049;-29
2022/02/21 00:12:57;;;;;;;;;;;;;;;;;;1015487;29;1527;-29
2022/02/21 00:13:28;;;;;;;;;;;;;;;;;;1015887;29;899;-29
2022/02/21 00:13:58;;;;;;;;;;;;;;;;;;1015558;29;961;-29
2022/02/21 00:14:28;;;;;;;;;;;;;;;;;;1015664;29;951;-29
2022/02/21 00:14:59;;;;;;;;;;;;;;;;;;1015765;29;984;-29
2022/02/21 00:15:29;;;;;;;;;;;;;;;;;;1015419;29;904;-29
2022/02/21 00:15:59;;;;;;;;;;;;;;;;;;1015843;29;982;-29
2022/02/21 00:16:30;;;;;;;;;;;;;;;;;;1015537;29;984;-29
2022/02/21 00:17:01;;;;;;;;;;;;;;;;;;1015756;29;938;-29
2022/02/21 00:17:31;;;;;;;;;;;;;;;;;;1015596;29;1051;-29
2022/02/21 00:18:02;;;;;;;;;;;;;;;;;;1015381;29;856;-29
2022/02/21 00:18:32;;;;;;;;;;;;;;;;;;1015774;29;1009;-29
2022/02/21 00:19:03;;;;;;;;;;;;;;;;;;1015667;29;986;-29
2022/02/21 00:19:33;;;;;;;;;;;;;;;;;;1015526;29;812;-29
2022/02/21 00:20:04;;;;;;;;;;;;;;;;;;1015793;29;964;-28
2022/02/21 00:20:34;;;;;;;;;;;;;;;;;;1015381;29;1914;-29
2022/02/21 00:21:05;;;;;;;;;;;;;;;;;;1015797;29;930;-28
2022/02/21 00:21:36;;;;;;;;;;;;;;;;;;1015631;29;1078;-28
2022/02/21 00:22:06;;;;;;;;;;;;;;;;;;1015023;29;1168;-29
2022/02/21 00:22:36;;;;;;;;;;;;;;;;;;1015461;29;947;-29
2022/02/21 00:23:08;;;;;;;;;;;;;;;;;;1015054;29;909;-29
2022/02/21 00:23:38;;;;;;;;;;;;;;;;;;1015311;29;923;-29
2022/02/21 00:24:08;;;;;;;;;;;;;;;;;;1015745;29;908;-29
2022/02/21 00:24:39;;;;;;;;;;;;;;;;;;1015242;29;1238;-29
2022/02/21 00:25:09;;;;;;;;;;;;;;;;;;1015836;29;962;-29
2022/02/21 00:25:40;;;;;;;;;;;;;;;;;;1015561;29;938;-29
2022/02/21 00:26:10;;;;;;;;;;;;;;;;;;1015554;29;907;-29
2022/02/21 00:26:41;;;;;;;;;;;;;;;;;;1015761;29;1038;-28
2022/02/21 00:27:11;;;;;;;;;;;;;;;;;;1015348;29;965;-28
2022/02/21 00:27:42;;;;;;;;;;;;;;;;;;1015529;29;1205;-29
2022/02/21 00:28:12;;;;;;;;;;;;;;;;;;1015123;29;1319;-29
2022/02/21 00:28:45;;;;;;;;;;;;;;;;;;1015216;29;938;-29
2022/02/21 00:29:16;;;;;;;;;;;;;;;;;;1015417;29;801;-29
2022/02/21 00:29:47;;;;;;;;;;;;;;;;;;1015160;29;942;-28
2022/02/21 00:30:18;;;;;;;;;;;;;;;;;;1015669;29;882;-29
2022/02/21 00:30:48;;;;;;;;;;;;;;;;;;1015641;29;978;-28
2022/02/21 00:31:19;;;;;;;;;;;;;;;;;;1015432;29;852;-28
2022/02/21 00:31:50;;;;;;;;;;;;;;;;;;1015837;29;875;-29
2022/02/21 00:32:20;;;;;;;;;;;;;;;;;;1015563;29;960;-29
2022/02/21 00:32:51;;;;;;;;;;;;;;;;;;1015463;29;836;-29
2022/02/21 00:33:21;;;;;;;;;;;;;;;;;;1015737;29;1016;-29
2022/02/21 00:33:51;;;;;;;;;;;;;;;;;;1015378;29;845;-29
2022/02/21 00:34:22;;;;;;;;;;;;;;;;;;1015762;29;891;-29
2022/02/21 00:34:52;;;;;;;;;;;;;;;;;;1015471;29;1246;-29
2022/02/21 00:35:24;;;;;;;;;;;;;;;;;;1015517;29;878;-29
2022/02/21 00:35:54;;;;;;;;;;;;;;;;;;1015470;29;1000;-29
2022/02/21 00:36:24;;;;;;;;;;;;;;;;;;1014977;29;1001;-29
2022/02/21 00:36:54;;;;;;;;;;;;;;;;;;1015330;29;863;-29
2022/02/21 00:37:25;;;;;;;;;;;;;;;;;;1015203;29;905;-29
2022/02/21 00:37:56;;;;;;;;;;;;;;;;;;1015473;29;847;-29
2022/02/21 00:38:26;;;;;;;;;;;;;;;;;;1015695;29;1011;-29
2022/02/21 00:38:57;;;;;;;;;;;;;;;;;;1015408;29;930;-29
2022/02/21 00:39:28;;;;;;;;;;;;;;;;;;1015534;29;966;-29
2022/02/21 00:39:58;;;;;;;;;;;;;;;;;;1015808;29;928;-29
2022/02/21 00:40:30;;;;;;;;;;;;;;;;;;1015193;29;989;-29
2022/02/21 00:41:01;;;;;;;;;;;;;;;;;;1015838;29;1911;-29
2022/02/21 00:41:31;;;;;;;;;;;;;;;;;;1015448;29;940;-29
2022/02/21 00:42:02;;;;;;;;;;;;;;;;;;1015654;29;863;-29
2022/02/21 00:42:32;;;;;;;;;;;;;;;;;;1015609;29;1033;-29
2022/02/21 00:43:02;;;;;;;;;;;;;;;;;;1015410;29;954;-29
2022/02/21 00:43:33;;;;;;;;;;;;;;;;;;1015539;29;796;-29
2022/02/21 00:44:04;;;;;;;;;;;;;;;;;;1015724;29;949;-29
2022/02/21 00:44:34;;;;;;;;;;;;;;;;;;1014885;29;823;-29
2022/02/21 00:45:07;;;;;;;;;;;;;;;;;;1015488;29;921;-29
2022/02/21 00:45:37;;;;;;;;;;;;;;;;;;1014888;29;933;-29
2022/02/21 00:46:08;;;;;;;;;;;;;;;;;;1015392;29;985;-29
2022/02/21 00:46:38;;;;;;;;;;;;;;;;;;1015570;29;959;-29
2022/02/21 00:47:08;;;;;;;;;;;;;;;;;;1015102;29;872;-29
2022/02/21 00:47:40;;;;;;;;;;;;;;;;;;1014864;29;928;-29
2022/02/21 00:48:10;;;;;;;;;;;;;;;;;;1015297;29;1050;-29
2022/02/21 00:48:41;;;;;;;;;;;;;;;;;;1015439;29;892;-29
2022/02/21 00:49:11;;;;;;;;;;;;;;;;;;1015749;29;961;-29
2022/02/21 00:49:42;;;;;;;;;;;;;;;;;;1015209;29;1107;-29
2022/02/21 00:50:12;;;;;;;;;;;;;;;;;;1015790;29;966;-29
2022/02/21 00:50:43;;;;;;;;;;;;;;;;;;1015449;29;953;-29
2022/02/21 00:51:13;;;;;;;;;;;;;;;;;;1015519;29;851;-29
2022/02/21 00:51:43;;;;;;;;;;;;;;;;;;1015542;29;1064;-29
2022/02/21 00:52:14;;;;;;;;;;;;;;;;;;1015018;29;1008;-29
2022/02/21 00:52:45;;;;;;;;;;;;;;;;;;1015361;29;919;-29
2022/02/21 00:53:15;;;;;;;;;;;;;;;;;;1015258;29;932;-29
2022/02/21 00:53:45;;;;;;;;;;;;;;;;;;1014945;29;981;-29
2022/02/21 00:54:15;;;;;;;;;;;;;;;;;;1015774;29;938;-29
2022/02/21 00:54:46;;;;;;;;;;;;;;;;;;1015248;29;905;-29
2022/02/21 00:55:17;;;;;;;;;;;;;;;;;;1015695;29;859;-29
2022/02/21 00:55:47;;;;;;;;;;;;;;;;;;1015403;29;989;-29
2022/02/21 00:56:18;;;;;;;;;;;;;;;;;;1015482;29;832;-29
2022/02/21 00:56:48;;;;;;;;;;;;;;;;;;1015656;29;1113;-29
2022/02/21 00:57:20;;;;;;;;;;;;;;;;;;1015397;29;944;-29
2022/02/21 00:57:50;;;;;;;;;;;;;;;;;;1015274;29;1171;-29
2022/02/21 00:58:20;;;;;;;;;;;;;;;;;;1015723;29;895;-29
2022/02/21 00:58:51;;;;;;;;;;;;;;;;;;1015112;29;1005;-29
2022/02/21 00:59:21;;;;;;;;;;;;;;;;;;1015810;29;883;-28
2022/02/21 00:59:51;;;;;;;;;;;;;;;;;;1015407;29;951;-29
2022/02/21 01:00:22;;;;;;;;;;;;;;;;;;1015448;29;974;-29
2022/02/21 01:00:52;;;;;;;;;;;;;;;;;;1015492;29;1968;-29
2022/02/21 01:01:22;;;;;;;;;;;;;;;;;;1015413;29;922;-29
2022/02/21 01:01:53;;;;;;;;;;;;;;;;;;1015556;29;1002;-28
2022/02/21 01:02:23;;;;;;;;;;;;;;;;;;1015538;29;880;-29
2022/02/21 01:02:53;;;;;;;;;;;;;;;;;;1015283;29;832;-29
2022/02/21 01:03:24;;;;;;;;;;;;;;;;;;1015712;29;975;-29
2022/02/21 01:03:54;;;;;;;;;;;;;;;;;;1015174;29;947;-29
2022/02/21 01:04:24;;;;;;;;;;;;;;;;;;1015698;29;808;-29
2022/02/21 01:04:56;;;;;;;;;;;;;;;;;;1015495;29;889;-29
2022/02/21 01:05:26;;;;;;;;;;;;;;;;;;1015358;29;935;-29
2022/02/21 01:05:57;;;;;;;;;;;;;;;;;;1015614;29;936;-29
2022/02/21 01:06:28;;;;;;;;;;;;;;;;;;1015317;29;958;-29
2022/02/21 01:06:58;;;;;;;;;;;;;;;;;;1015557;29;877;-29
2022/02/21 01:07:28;;;;;;;;;;;;;;;;;;1015491;29;908;-29
2022/02/21 01:07:59;;;;;;;;;;;;;;;;;;1015230;29;1006;-29
2022/02/21 01:08:29;;;;;;;;;;;;;;;;;;1015561;29;1006;-30
2022/02/21 01:09:00;;;;;;;;;;;;;;;;;;1015443;29;934;-30
2022/02/21 01:09:30;;;;;;;;;;;;;;;;;;1015350;29;863;-29
2022/02/21 01:10:02;;;;;;;;;;;;;;;;;;1015682;29;1099;-29
2022/02/21 01:10:33;;;;;;;;;;;;;;;;;;1015139;29;1040;-29
2022/02/21 01:11:03;;;;;;;;;;;;;;;;;;1015714;29;848;-29
2022/02/21 01:11:34;;;;;;;;;;;;;;;;;;1015395;29;931;-29
2022/02/21 01:12:04;;;;;;;;;;;;;;;;;;1015366;29;990;-29
2022/02/21 01:12:34;;;;;;;;;;;;;;;;;;1015492;29;1025;-29
2022/02/21 01:13:06;;;;;;;;;;;;;;;;;;1015427;29;995;-29
2022/02/21 01:13:36;;;;;;;;;;;;;;;;;;1015484;29;887;-29
2022/02/21 01:14:06;;;;;;;;;;;;;;;;;;1015656;29;1017;-29
2022/02/21 01:14:38;;;;;;;;;;;;;;;;;;1015230;29;864;-29
2022/02/21 01:15:09;;;;;;;;;;;;;;;;;;1015573;29;921;-29
2022/02/21 01:15:39;;;;;;;;;;;;;;;;;;1015344;29;919;-29
2022/02/21 01:16:09;;;;;;;;;;;;;;;;;;1015392;29;820;-29
2022/02/21 01:16:40;;;;;;;;;;;;;;;;;;1015580;29;923;-29
2022/02/21 01:17:11;;;;;;;;;;;;;;;;;;1015187;29;997;-29
2022/02/21 01:17:42;;;;;;;;;;;;;;;;;;1015510;29;898;-29
2022/02/21 01:18:12;;;;;;;;;;;;;;;;;;1015437;29;1062;-29
2022/02/21 01:18:42;;;;;;;;;;;;;;;;;;1015372;29;970;-30
2022/02/21 01:19:13;;;;;;;;;;;;;;;;;;1015186;29;941;-29
2022/02/21 01:19:43;;;;;;;;;;;;;;;;;;1014950;29;1051;-29
2022/02/21 01:20:14;;;;;;;;;;;;;;;;;;1015190;29;840;-29
2022/02/21 01:20:44;;;;;;;;;;;;;;;;;;1015149;29;1915;-29
2022/02/21 01:21:14;;;;;;;;;;;;;;;;;;1015240;29;867;-30
2022/02/21 01:21:46;;;;;;;;;;;;;;;;;;1015637;29;820;-29
2022/02/21 01:22:16;;;;;;;;;;;;;;;;;;1015316;29;980;-29
2022/02/21 01:22:46;;;;;;;;;;;;;;;;;;1015438;29;954;-29
2022/02/21 01:23:17;;;;;;;;;;;;;;;;;;1015574;29;1005;-29
2022/02/21 01:23:47;;;;;;;;;;;;;;;;;;1015239;29;872;-29
2022/02/21 01:24:17;;;;;;;;;;;;;;;;;;1015690;29;944;-29
2022/02/21 01:24:48;;;;;;;;;;;;;;;;;;1015147;29;1383;-29
2022/02/21 01:25:18;;;;;;;;;;;;;;;;;;1015474;29;812;-29
2022/02/21 01:25:49;;;;;;;;;;;;;;;;;;1015482;29;942;-29
2022/02/21 01:26:20;;;;;;;;;;;;;;;;;;1015270;29;976;-29
2022/02/21 01:26:51;;;;;;;;;;;;;;;;;;1015608;29;828;-29
2022/02/21 01:27:21;;;;;;;;;;;;;;;;;;1014974;29;1135;-29
2022/02/21 01:27:52;;;;;;;;;;;;;;;;;;1015279;29;911;-29
2022/02/21 01:28:22;;;;;;;;;;;;;;;;;;1015664;29;1018;-29
2022/02/21 01:28:53;;;;;;;;;;;;;;;;;;1015123;29;907;-29
2022/02/21 01:29:23;;;;;;;;;;;;;;;;;;1015476;29;939;-29
2022/02/21 01:29:54;;;;;;;;;;;;;;;;;;1015364;29;983;-29
2022/02/21 01:30:24;;;;;;;;;;;;;;;;;;1015297;29;868;-29
2022/02/21 01:30:55;;;;;;;;;;;;;;;;;;1015395;29;1069;-29
2022/02/21 01:31:25;;;;;;;;;;;;;;;;;;1015310;29;1091;-29
2022/02/21 01:31:55;;;;;;;;;;;;;;;;;;1015387;29;1133;-29
2022/02/21 01:32:25;;;;;;;;;;;;;;;;;;1015476;29;955;-29
2022/02/21 01:32:56;;;;;;;;;;;;;;;;;;1015307;29;824;-29
2022/02/21 01:33:28;;;;;;;;;;;;;;;;;;1015457;29;1055;-29
2022/02/21 01:33:58;;;;;;;;;;;;;;;;;;1015272;29;962;-29
2022/02/21 01:34:28;;;;;;;;;;;;;;;;;;1015314;29;883;-29
2022/02/21 01:34:59;;;;;;;;;;;;;;;;;;1015098;29;1176;-29
2022/02/21 01:35:29;;;;;;;;;;;;;;;;;;1014914;29;808;-29
2022/02/21 01:35:59;;;;;;;;;;;;;;;;;;1015037;29;893;-29
2022/02/21 01:36:30;;;;;;;;;;;;;;;;;;1014781;29;1031;-29
2022/02/21 01:37:00;;;;;;;;;;;;;;;;;;1015437;29;894;-29
2022/02/21 01:37:31;;;;;;;;;;;;;;;;;;1015302;29;1057;-29
2022/02/21 01:38:02;;;;;;;;;;;;;;;;;;1015219;29;954;-29
2022/02/21 01:38:32;;;;;;;;;;;;;;;;;;1015377;29;951;-29
2022/02/21 01:39:02;;;;;;;;;;;;;;;;;;1015334;29;903;-29
2022/02/21 01:39:33;;;;;;;;;;;;;;;;;;1015270;29;824;-29
2022/02/21 01:40:07;;;;;;;;;;;;;;;;;;1015456;29;987;-29
2022/02/21 01:40:38;;;;;;;;;;;;;;;;;;1015161;29;1923;-29
2022/02/21 01:41:08;;;;;;;;;;;;;;;;;;1015338;29;864;-29
2022/02/21 01:41:39;;;;;;;;;;;;;;;;;;1015416;29;954;-29
2022/02/21 01:42:10;;;;;;;;;;;;;;;;;;1015112;29;934;-29
2022/02/21 01:42:41;;;;;;;;;;;;;;;;;;1015562;29;967;-29
2022/02/21 01:43:11;;;;;;;;;;;;;;;;;;1015219;29;960;-29
2022/02/21 01:43:41;;;;;;;;;;;;;;;;;;1015309;29;915;-29
2022/02/21 01:44:12;;;;;;;;;;;;;;;;;;1015302;29;943;-30
2022/02/21 01:44:47;;;;;;;;;;;;;;;;;;1015212;29;947;-29
2022/02/21 01:45:17;;;;;;;;;;;;;;;;;;1015440;29;935;-30
2022/02/21 01:45:47;;;;;;;;;;;;;;;;;;1015273;29;1624;-30
2022/02/21 01:46:18;;;;;;;;;;;;;;;;;;1015206;29;899;-29
2022/02/21 01:46:48;;;;;;;;;;;;;;;;;;1015345;29;944;-29
2022/02/21 01:47:19;;;;;;;;;;;;;;;;;;1015252;29;982;-29
2022/02/21 01:47:50;;;;;;;;;;;;;;;;;;1015176;29;1093;-29
2022/02/21 01:48:20;;;;;;;;;;;;;;;;;;1015441;29;944;-29
2022/02/21 01:48:50;;;;;;;;;;;;;;;;;;1015107;29;1031;-29
2022/02/21 01:49:21;;;;;;;;;;;;;;;;;;1015566;29;1038;-29
2022/02/21 01:49:51;;;;;;;;;;;;;;;;;;1015123;29;875;-29
2022/02/21 01:50:22;;;;;;;;;;;;;;;;;;1015300;29;1598;-29
2022/02/21 01:50:52;;;;;;;;;;;;;;;;;;1015332;29;1093;-29
2022/02/21 01:51:23;;;;;;;;;;;;;;;;;;1015163;29;1067;-29
2022/02/21 01:51:53;;;;;;;;;;;;;;;;;;1015343;29;967;-29
2022/02/21 01:52:24;;;;;;;;;;;;;;;;;;1015294;29;901;-29
2022/02/21 01:52:54;;;;;;;;;;;;;;;;;;1015135;29;882;-29
2022/02/21 01:53:24;;;;;;;;;;;;;;;;;;1015476;29;1020;-29
2022/02/21 01:53:55;;;;;;;;;;;;;;;;;;1015106;29;983;-29
2022/02/21 01:54:26;;;;;;;;;;;;;;;;;;1015493;29;852;-30
2022/02/21 01:54:56;;;;;;;;;;;;;;;;;;1015148;29;860;-30
2022/02/21 01:55:27;;;;;;;;;;;;;;;;;;1015160;29;998;-29
2022/02/21 01:55:57;;;;;;;;;;;;;;;;;;1015381;29;960;-29
2022/02/21 01:56:28;;;;;;;;;;;;;;;;;;1015107;29;946;-29
2022/02/21 01:56:59;;;;;;;;;;;;;;;;;;1015214;29;954;-29
2022/02/21 01:57:29;;;;;;;;;;;;;;;;;;1015230;29;975;-29
2022/02/21 01:57:59;;;;;;;;;;;;;;;;;;1015130;29;1057;-29
2022/02/21 01:58:30;;;;;;;;;;;;;;;;;;1015377;29;990;-29
2022/02/21 01:59:00;;;;;;;;;;;;;;;;;;1014933;29;956;-29
2022/02/21 01:59:31;;;;;;;;;;;;;;;;;;1015290;29;879;-29
2022/02/21 02:00:03;;;;;;;;;;;;;;;;;;1015357;29;1074;-28
2022/02/21 02:00:44;;;;;;;;;;;;;;;;;;1015103;29;1903;-29
2022/02/21 02:01:14;;;;;;;;;;;;;;;;;;1015284;29;765;-29
2022/02/21 02:01:44;;;;;;;;;;;;;;;;;;1015379;29;1006;-29
2022/02/21 02:02:15;;;;;;;;;;;;;;;;;;1015041;29;968;-28
2022/02/21 02:02:46;;;;;;;;;;;;;;;;;;1015429;29;836;-28
2022/02/21 02:03:16;;;;;;;;;;;;;;;;;;1015157;29;998;-28
2022/02/21 02:03:47;;;;;;;;;;;;;;;;;;1015082;29;1093;-28
2022/02/21 02:04:17;;;;;;;;;;;;;;;;;;1015410;29;1098;-28
2022/02/21 02:04:47;;;;;;;;;;;;;;;;;;1015000;29;887;-28
2022/02/21 02:05:18;;;;;;;;;;;;;;;;;;1015411;29;812;-29
2022/02/21 02:05:48;;;;;;;;;;;;;;;;;;1015223;29;919;-28
2022/02/21 02:06:19;;;;;;;;;;;;;;;;;;1015217;29;887;-28
2022/02/21 02:06:50;;;;;;;;;;;;;;;;;;1015367;29;1043;-28
2022/02/21 02:07:20;;;;;;;;;;;;;;;;;;1014814;29;927;-29
2022/02/21 02:07:52;;;;;;;;;;;;;;;;;;1015310;29;820;-28
2022/02/21 02:08:22;;;;;;;;;;;;;;;;;;1015312;29;986;-29
2022/02/21 02:08:52;;;;;;;;;;;;;;;;;;1015050;29;979;-29
2022/02/21 02:09:23;;;;;;;;;;;;;;;;;;1015397;29;946;-29
2022/02/21 02:09:53;;;;;;;;;;;;;;;;;;1015221;29;1055;-29
2022/02/21 02:10:24;;;;;;;;;;;;;;;;;;1015179;29;851;-29
2022/02/21 02:10:57;;;;;;;;;;;;;;;;;;1015443;29;952;-29
2022/02/21 02:11:29;;;;;;;;;;;;;;;;;;1014860;29;955;-29
2022/02/21 02:11:59;;;;;;;;;;;;;;;;;;1015320;29;1033;-29
2022/02/21 02:12:30;;;;;;;;;;;;;;;;;;1015324;29;1021;-29
2022/02/21 02:13:00;;;;;;;;;;;;;;;;;;1014694;29;927;-29
2022/02/21 02:13:30;;;;;;;;;;;;;;;;;;1014977;29;1337;-29
2022/02/21 02:14:01;;;;;;;;;;;;;;;;;;1014634;29;1460;-29
2022/02/21 02:14:33;;;;;;;;;;;;;;;;;;1015005;29;1412;-28
2022/02/21 02:15:03;;;;;;;;;;;;;;;;;;1015308;29;1102;-28
2022/02/21 02:15:34;;;;;;;;;;;;;;;;;;1014911;29;1055;-28
2022/02/21 02:16:04;;;;;;;;;;;;;;;;;;1015447;29;1065;-29
2022/02/21 02:16:35;;;;;;;;;;;;;;;;;;1015054;29;892;-28
2022/02/21 02:17:06;;;;;;;;;;;;;;;;;;1015221;29;903;-28
2022/02/21 02:17:37;;;;;;;;;;;;;;;;;;1015265;29;948;-28
2022/02/21 02:18:07;;;;;;;;;;;;;;;;;;1014886;29;971;-28
2022/02/21 02:18:38;;;;;;;;;;;;;;;;;;1015484;29;808;-28
2022/02/21 02:19:08;;;;;;;;;;;;;;;;;;1015139;29;967;-28
2022/02/21 02:19:39;;;;;;;;;;;;;;;;;;1015108;29;985;-28
2022/02/21 02:20:10;;;;;;;;;;;;;;;;;;1015376;29;978;-29
2022/02/21 02:20:40;;;;;;;;;;;;;;;;;;1014724;29;1970;-28
2022/02/21 02:21:14;;;;;;;;;;;;;;;;;;1015472;29;908;-29
2022/02/21 02:21:46;;;;;;;;;;;;;;;;;;1015283;29;955;-29
2022/02/21 02:22:17;;;;;;;;;;;;;;;;;;1014878;29;1000;-29
2022/02/21 02:22:48;;;;;;;;;;;;;;;;;;1015375;29;855;-29
2022/02/21 02:23:18;;;;;;;;;;;;;;;;;;1015115;29;954;-29
2022/02/21 02:23:49;;;;;;;;;;;;;;;;;;1015239;29;855;-28
2022/02/21 02:24:20;;;;;;;;;;;;;;;;;;1015081;29;1155;-29
2022/02/21 02:24:52;;;;;;;;;;;;;;;;;;1015055;29;957;-29
2022/02/21 02:25:23;;;;;;;;;;;;;;;;;;1015154;29;950;-29
2022/02/21 02:25:53;;;;;;;;;;;;;;;;;;1015335;29;925;-29
2022/02/21 02:26:23;;;;;;;;;;;;;;;;;;1014919;29;1046;-29
2022/02/21 02:26:54;;;;;;;;;;;;;;;;;;1015541;29;871;-28
2022/02/21 02:27:25;;;;;;;;;;;;;;;;;;1014698;29;1047;-29
2022/02/21 02:27:56;;;;;;;;;;;;;;;;;;1015268;29;994;-28
2022/02/21 02:28:26;;;;;;;;;;;;;;;;;;1015080;29;1036;-28
2022/02/21 02:28:57;;;;;;;;;;;;;;;;;;1015082;29;1025;-28
2022/02/21 02:29:27;;;;;;;;;;;;;;;;;;1015292;29;966;-28
2022/02/21 02:30:04;;;;;;;;;;;;;;;;;;1015133;29;958;-29
2022/02/21 02:30:34;;;;;;;;;;;;;;;;;;1014931;29;988;-28
2022/02/21 02:31:05;;;;;;;;;;;;;;;;;;1015337;29;903;-28
2022/02/21 02:31:35;;;;;;;;;;;;;;;;;;1015131;29;833;-29
2022/02/21 02:32:07;;;;;;;;;;;;;;;;;;1015227;29;816;-29
2022/02/21 02:32:37;;;;;;;;;;;;;;;;;;1015079;29;816;-29
2022/02/21 02:33:08;;;;;;;;;;;;;;;;;;1015063;29;1625;-29
2022/02/21 02:33:38;;;;;;;;;;;;;;;;;;1015285;29;1174;-29
2022/02/21 02:34:08;;;;;;;;;;;;;;;;;;1015163;29;941;-28
2022/02/21 02:34:40;;;;;;;;;;;;;;;;;;1014968;29;1147;-29
2022/02/21 02:35:10;;;;;;;;;;;;;;;;;;1015236;29;1085;-29
2022/02/21 02:35:40;;;;;;;;;;;;;;;;;;1014868;29;1104;-29
2022/02/21 02:36:11;;;;;;;;;;;;;;;;;;1015376;29;950;-28
2022/02/21 02:36:44;;;;;;;;;;;;;;;;;;1014971;29;990;-29
2022/02/21 02:37:15;;;;;;;;;;;;;;;;;;1015100;29;1087;-29
2022/02/21 02:37:46;;;;;;;;;;;;;;;;;;1015119;29;835;-29
2022/02/21 02:38:16;;;;;;;;;;;;;;;;;;1015218;29;1015;-29
2022/02/21 02:38:46;;;;;;;;;;;;;;;;;;1014601;29;970;-29
2022/02/21 02:39:17;;;;;;;;;;;;;;;;;;1014978;29;925;-29
2022/02/21 02:39:47;;;;;;;;;;;;;;;;;;1014456;29;986;-29
2022/02/21 02:40:18;;;;;;;;;;;;;;;;;;1015026;29;777;-28
2022/02/21 02:40:48;;;;;;;;;;;;;;;;;;1014835;29;1964;-29
2022/02/21 02:41:18;;;;;;;;;;;;;;;;;;1015288;29;908;-29
2022/02/21 02:41:50;;;;;;;;;;;;;;;;;;1015058;29;952;-29
2022/02/21 02:42:20;;;;;;;;;;;;;;;;;;1014887;29;974;-29
2022/02/21 02:42:51;;;;;;;;;;;;;;;;;;1015234;29;918;-29
2022/02/21 02:43:21;;;;;;;;;;;;;;;;;;1015054;29;921;-29
2022/02/21 02:43:52;;;;;;;;;;;;;;;;;;1015156;29;812;-29
2022/02/21 02:44:22;;;;;;;;;;;;;;;;;;1015049;29;1070;-29
2022/02/21 02:44:53;;;;;;;;;;;;;;;;;;1015025;29;974;-29
2022/02/21 02:45:23;;;;;;;;;;;;;;;;;;1015105;29;875;-29
2022/02/21 02:45:53;;;;;;;;;;;;;;;;;;1015172;29;1053;-29
2022/02/21 02:46:24;;;;;;;;;;;;;;;;;;1014941;29;1672;-29
2022/02/21 02:46:54;;;;;;;;;;;;;;;;;;1015238;29;985;-29
2022/02/21 02:47:24;;;;;;;;;;;;;;;;;;1014720;29;887;-29
2022/02/21 02:47:55;;;;;;;;;;;;;;;;;;1015238;29;815;-28
2022/02/21 02:48:25;;;;;;;;;;;;;;;;;;1015024;29;1011;-29
2022/02/21 02:48:55;;;;;;;;;;;;;;;;;;1014951;29;1001;-29
2022/02/21 02:49:26;;;;;;;;;;;;;;;;;;1015182;29;871;-28
2022/02/21 02:49:56;;;;;;;;;;;;;;;;;;1015056;29;962;-28
2022/02/21 02:50:26;;;;;;;;;;;;;;;;;;1015112;29;871;-29
2022/02/21 02:50:57;;;;;;;;;;;;;;;;;;1015166;29;922;-28
2022/02/21 02:51:27;;;;;;;;;;;;;;;;;;1014839;29;1006;-29
2022/02/21 02:51:57;;;;;;;;;;;;;;;;;;1015387;29;875;-29
2022/02/21 02:52:27;;;;;;;;;;;;;;;;;;1014812;29;1010;-28
2022/02/21 02:52:58;;;;;;;;;;;;;;;;;;1015176;29;519;-28
2022/02/21 02:53:29;;;;;;;;;;;;;;;;;;1015066;29;1051;-29
2022/02/21 02:54:00;;;;;;;;;;;;;;;;;;1014877;29;986;-29
2022/02/21 02:54:30;;;;;;;;;;;;;;;;;;1015312;29;903;-29
2022/02/21 02:55:01;;;;;;;;;;;;;;;;;;1014932;29;970;-29
2022/02/21 02:55:31;;;;;;;;;;;;;;;;;;1015045;29;816;-29
2022/02/21 02:56:01;;;;;;;;;;;;;;;;;;1015142;29;947;-29
2022/02/21 02:56:32;;;;;;;;;;;;;;;;;;1014873;29;1063;-29
2022/02/21 02:57:03;;;;;;;;;;;;;;;;;;1015212;29;903;-29
2022/02/21 02:57:33;;;;;;;;;;;;;;;;;;1014839;29;944;-28
2022/02/21 02:58:03;;;;;;;;;;;;;;;;;;1014913;29;880;-29
2022/02/21 02:58:34;;;;;;;;;;;;;;;;;;1015238;29;1123;-29
2022/02/21 02:59:04;;;;;;;;;;;;;;;;;;1014837;29;978;-28
2022/02/21 02:59:35;;;;;;;;;;;;;;;;;;1015160;29;792;-28
2022/02/21 03:00:06;;;;;;;;;;;;;;;;;;1015021;29;965;-29
2022/02/21 03:00:36;;;;;;;;;;;;;;;;;;1014842;29;1986;-29
2022/02/21 03:01:06;;;;;;;;;;;;;;;;;;1015331;29;1009;-28
2022/02/21 03:01:39;;;;;;;;;;;;;;;;;;1014847;29;934;-33
2022/02/21 03:02:09;;;;;;;;;;;;;;;;;;1015126;29;1089;-29
2022/02/21 03:02:40;;;;;;;;;;;;;;;;;;1015062;29;941;-29
2022/02/21 03:03:10;;;;;;;;;;;;;;;;;;1015008;29;937;-28
2022/02/21 03:03:40;;;;;;;;;;;;;;;;;;1015161;29;820;-28
2022/02/21 03:04:10;;;;;;;;;;;;;;;;;;1014915;29;1309;-29
2022/02/21 03:04:41;;;;;;;;;;;;;;;;;;1014897;29;931;-28
2022/02/21 03:05:11;;;;;;;;;;;;;;;;;;1015243;29;895;-28
2022/02/21 03:05:42;;;;;;;;;;;;;;;;;;1014720;29;927;-29
2022/02/21 03:06:12;;;;;;;;;;;;;;;;;;1015290;29;919;-28
2022/02/21 03:06:42;;;;;;;;;;;;;;;;;;1014908;29;889;-29
2022/02/21 03:07:13;;;;;;;;;;;;;;;;;;1015068;29;943;-28
2022/02/21 03:07:43;;;;;;;;;;;;;;;;;;1014963;29;985;-28
2022/02/21 03:08:13;;;;;;;;;;;;;;;;;;1014780;29;990;-28
2022/02/21 03:08:44;;;;;;;;;;;;;;;;;;1015094;29;871;-29
2022/02/21 03:09:14;;;;;;;;;;;;;;;;;;1015092;29;1165;-28
2022/02/21 03:09:44;;;;;;;;;;;;;;;;;;1014946;29;903;-28
2022/02/21 03:10:15;;;;;;;;;;;;;;;;;;1015069;29;984;-29
2022/02/21 03:10:45;;;;;;;;;;;;;;;;;;1014332;29;925;-28
2022/02/21 03:11:15;;;;;;;;;;;;;;;;;;1015258;29;796;-29
2022/02/21 03:11:46;;;;;;;;;;;;;;;;;;1015002;29;951;-29
2022/02/21 03:12:16;;;;;;;;;;;;;;;;;;1014927;29;952;-28
2022/02/21 03:12:46;;;;;;;;;;;;;;;;;;1015148;29;780;-29
2022/02/21 03:13:17;;;;;;;;;;;;;;;;;;1014901;29;991;-29
2022/02/21 03:13:47;;;;;;;;;;;;;;;;;;1014634;29;970;-29
2022/02/21 03:14:18;;;;;;;;;;;;;;;;;;1014844;29;863;-28
2022/02/21 03:14:49;;;;;;;;;;;;;;;;;;1014350;29;1015;-28
2022/02/21 03:15:19;;;;;;;;;;;;;;;;;;1014816;29;927;-28
2022/02/21 03:15:49;;;;;;;;;;;;;;;;;;1014922;29;999;-29
2022/02/21 03:16:20;;;;;;;;;;;;;;;;;;1014938;29;829;-28
2022/02/21 03:16:50;;;;;;;;;;;;;;;;;;1015126;29;970;-28
2022/02/21 03:17:20;;;;;;;;;;;;;;;;;;1014638;29;1076;-28
2022/02/21 03:17:50;;;;;;;;;;;;;;;;;;1015260;29;796;-29
2022/02/21 03:18:21;;;;;;;;;;;;;;;;;;1014957;29;904;-29
2022/02/21 03:18:51;;;;;;;;;;;;;;;;;;1014822;29;947;-29
2022/02/21 03:19:24;;;;;;;;;;;;;;;;;;1015141;29;1185;-29
2022/02/21 03:19:55;;;;;;;;;;;;;;;;;;1014859;29;1031;-29
2022/02/21 03:20:25;;;;;;;;;;;;;;;;;;1014980;29;994;-28
2022/02/21 03:20:55;;;;;;;;;;;;;;;;;;1014641;29;1906;-28
2022/02/21 03:21:26;;;;;;;;;;;;;;;;;;1014862;29;813;-29
2022/02/21 03:21:56;;;;;;;;;;;;;;;;;;1014236;29;991;-29
2022/02/21 03:22:27;;;;;;;;;;;;;;;;;;1013649;29;996;-29
2022/02/21 03:22:57;;;;;;;;;;;;;;;;;;1014583;29;1092;-28
2022/02/21 03:23:27;;;;;;;;;;;;;;;;;;1007917;29;1135;-29
2022/02/21 03:23:58;;;;;;;;;;;;;;;;;;1013780;29;832;-28
2022/02/21 03:24:28;;;;;;;;;;;;;;;;;;1014705;29;1230;-28
2022/02/21 03:24:59;;;;;;;;;;;;;;;;;;1018234;29;952;-29
2022/02/21 03:25:29;;;;;;;;;;;;;;;;;;1018406;29;954;-29
2022/02/21 03:25:59;;;;;;;;;;;;;;;;;;1018916;29;959;-29
2022/02/21 03:26:30;;;;;;;;;;;;;;;;;;1018571;29;982;-29
2022/02/21 03:27:00;;;;;;;;;;;;;;;;;;1018876;29;944;-29
2022/02/21 03:27:31;;;;;;;;;;;;;;;;;;1018443;29;1323;-29
2022/02/21 03:28:01;;;;;;;;;;;;;;;;;;1018704;29;1017;-29
2022/02/21 03:28:31;;;;;;;;;;;;;;;;;;1018969;29;849;-29
2022/02/21 03:29:02;;;;;;;;;;;;;;;;;;1018758;29;994;-29
2022/02/21 03:29:32;;;;;;;;;;;;;;;;;;1018926;29;875;-29
2022/02/21 03:30:03;;;;;;;;;;;;;;;;;;1018729;29;896;-29
2022/02/21 03:30:33;;;;;;;;;;;;;;;;;;1018787;29;780;-29
2022/02/21 03:31:03;;;;;;;;;;;;;;;;;;1018951;29;907;-28
2022/02/21 03:31:33;;;;;;;;;;;;;;;;;;1018657;29;1093;-29
2022/02/21 03:32:05;;;;;;;;;;;;;;;;;;1018653;29;852;-29
2022/02/21 03:32:35;;;;;;;;;;;;;;;;;;1018506;29;1204;-28
2022/02/21 03:33:07;;;;;;;;;;;;;;;;;;1018361;29;788;-29
2022/02/21 03:33:38;;;;;;;;;;;;;;;;;;1018691;29;974;-28
2022/02/21 03:34:08;;;;;;;;;;;;;;;;;;1018708;29;948;-28
2022/02/21 03:34:38;;;;;;;;;;;;;;;;;;1018247;29;1126;-28
2022/02/21 03:35:09;;;;;;;;;;;;;;;;;;1015112;29;951;-28